Time;durP1;ratioP1;P1;durP2;ratioP2;P2;SDS_P1;SDS_P2;PMS_P1;PMS_P2;Temp;Humidity;BMP_temperature;BMP_pressure;BME280_temperature;BME280_humidity;BME280_pressure;Samples;Min_cycle;Max_cycle;Signal;HPM_P1;HPM_P2
2022/06/21 00:00:47;;;;;;;7.75;4.60;;;;;;;16.26;64.69;98305.38;5120014;27;20085;-71
2022/06/21 00:03:17;;;;;;;9.60;4.82;;;;;;;16.27;65.42;98317.81;5101551;27;20075;-64
2022/06/21 00:05:45;;;;;;;14.27;4.90;;;;;;;16.25;65.26;98317.19;5120567;27;20077;-75
2022/06/21 00:08:15;;;;;;;10.02;4.72;;;;;;;16.30;65.26;98322.84;5084759;27;20045;-68
2022/06/21 00:10:41;;;;;;;7.82;5.45;;;;;;;16.24;65.05;98324.41;5102118;27;20404;-72
2022/06/21 00:13:12;;;;;;;7.43;4.85;;;;;;;16.25;64.88;98325.25;5085408;27;20133;-75
2022/06/21 00:15:37;;;;;;;10.93;5.18;;;;;;;16.24;65.04;98310.13;5121879;27;20030;-73
2022/06/21 00:18:02;;;;;;;8.50;5.00;;;;;;;16.21;64.77;98310.47;5122053;27;20045;-73
2022/06/21 00:20:27;;;;;;;9.40;5.03;;;;;;;16.21;64.48;98303.25;5122108;27;20046;-74
2022/06/21 00:22:52;;;;;;;8.60;4.50;;;;;;;16.19;64.75;98297.19;5085769;27;20038;-74
2022/06/21 00:25:20;;;;;;;8.57;5.00;;;;;;;16.19;65.40;98299.06;5103021;27;20043;-72
2022/06/21 00:27:45;;;;;;;10.77;5.22;;;;;;;16.15;65.42;98295.88;5084762;27;20069;-73
2022/06/21 00:30:10;;;;;;;14.20;4.97;;;;;;;16.09;65.77;98291.22;5101366;27;20138;-72
2022/06/21 00:32:35;;;;;;;10.50;5.00;;;;;;;16.06;66.48;98298.78;5104071;27;20114;-70
2022/06/21 00:35:00;;;;;;;11.07;5.03;;;;;;;16.00;66.19;98292.28;5102007;27;20046;-71
2022/06/21 00:37:24;;;;;;;6.03;3.97;;;;;;;15.98;66.86;98288.94;5099748;27;20050;-72
2022/06/21 00:39:51;;;;;;;8.65;5.22;;;;;;;15.92;67.06;98284.25;5109571;27;20035;-76
2022/06/21 00:42:37;;;;;;;8.82;4.57;;;;;;;15.96;67.61;98285.56;5120564;27;20124;-76
2022/06/21 00:45:04;;;;;;;7.32;4.28;;;;;;;15.84;68.15;98282.44;5100566;27;20046;-71
2022/06/21 00:47:39;;;;;;;10.25;5.30;;;;;;;15.81;68.75;98288.16;5101052;27;20065;-75
2022/06/21 00:50:18;;;;;;;8.30;4.53;;;;;;;15.81;69.02;98284.63;5088709;27;20078;-74
2022/06/21 00:52:53;;;;;;;13.20;4.93;;;;;;;15.77;69.29;98296.78;5098996;27;20138;-69
2022/06/21 00:55:31;;;;;;;11.10;4.45;;;;;;;15.71;69.87;98297.47;5113208;27;20046;-68
2022/06/21 00:57:57;;;;;;;9.52;4.72;;;;;;;15.62;70.55;98302.03;5119237;27;20046;-68
2022/06/21 01:00:33;;;;;;;7.82;4.95;;;;;;;15.58;70.91;98304.22;5083249;27;20035;-67
2022/06/21 01:03:05;;;;;;;15.00;5.40;;;;;;;15.56;71.33;98310.81;5083669;27;20046;-67
2022/06/21 01:05:38;;;;;;;11.93;5.47;;;;;;;15.57;71.99;98317.84;5119054;27;20039;-69
2022/06/21 01:08:04;;;;;;;9.57;4.50;;;;;;;15.55;72.22;98320.72;5100320;27;20438;-71
2022/06/21 01:10:30;;;;;;;9.88;6.15;;;;;;;15.54;73.07;98312.78;5117880;27;20580;-70
2022/06/21 01:13:02;;;;;;;10.63;5.63;;;;;;;15.56;72.50;98317.00;5118727;27;20412;-69
2022/06/21 01:15:32;;;;;;;22.58;6.65;;;;;;;15.59;72.79;98299.69;5099736;27;20035;-68
2022/06/21 01:18:00;;;;;;;11.57;5.68;;;;;;;15.59;72.36;98299.69;5082288;27;20042;-71
2022/06/21 01:20:28;;;;;;;12.98;5.55;;;;;;;15.60;72.45;98279.88;5117941;27;20678;-73
2022/06/21 01:23:22;;;;;;;12.75;5.32;;;;;;;15.60;72.37;98261.91;5097552;27;20112;-71
2022/06/21 01:25:55;;;;;;;11.80;5.47;;;;;;;15.66;72.63;98252.31;5033940;28;20578;-71
2022/06/21 01:28:20;;;;;;;13.68;6.50;;;;;;;15.66;72.50;98246.13;5016966;28;20037;-72
2022/06/21 01:30:49;;;;;;;12.65;6.10;;;;;;;15.69;72.52;98235.03;5017095;28;20450;-73
2022/06/21 01:33:24;;;;;;;12.00;5.95;;;;;;;15.71;72.70;98238.34;5017338;28;20036;-71
2022/06/21 01:35:52;;;;;;;11.13;5.10;;;;;;;15.73;73.33;98225.56;5014728;28;20507;-71
2022/06/21 01:38:23;;;;;;;9.70;4.95;;;;;;;15.76;73.54;98215.31;5034720;28;20033;-70
2022/06/21 01:40:52;;;;;;;9.05;5.18;;;;;;;15.75;73.39;98210.97;5001658;28;20082;-71
2022/06/21 01:43:25;;;;;;;11.10;5.53;;;;;;;15.79;73.43;98203.38;5035106;28;20578;-72
2022/06/21 01:46:05;;;;;;;11.50;6.10;;;;;;;15.85;73.36;98199.97;5018151;28;20438;-71
2022/06/21 01:48:40;;;;;;;10.77;5.85;;;;;;;15.85;73.41;98203.50;5034659;28;20135;-71
2022/06/21 01:51:11;;;;;;;9.85;5.82;;;;;;;15.85;73.20;98210.72;5002236;28;20494;-71
2022/06/21 01:53:36;;;;;;;9.45;5.47;;;;;;;15.85;73.45;98208.88;5018223;28;20052;-66
2022/06/21 01:56:06;;;;;;;10.32;4.93;;;;;;;15.89;73.08;98209.38;5017854;28;20464;-68
2022/06/21 01:58:34;;;;;;;12.43;6.47;;;;;;;15.90;72.93;98213.72;5034393;28;20075;-67
2022/06/21 02:01:27;;;;;;;9.13;6.47;;;;;;;16.00;72.95;98206.28;5034972;27;20044;-68
2022/06/21 02:03:56;;;;;;;10.32;5.10;;;;;;;15.97;72.64;98212.00;5099297;27;20489;-67
2022/06/21 02:06:26;;;;;;;9.00;5.50;;;;;;;15.98;72.68;98219.03;5081904;27;20073;-68
2022/06/21 02:09:24;;;;;;;11.68;4.90;;;;;;;16.08;72.95;98218.81;5117182;27;20042;-70
2022/06/21 02:12:11;;;;;;;11.63;5.50;;;;;;;16.08;73.00;98238.47;5098871;27;20042;-67
2022/06/21 02:14:39;;;;;;;10.18;5.38;;;;;;;16.01;72.95;98236.69;5098807;27;20193;-68
2022/06/21 02:17:24;;;;;;;10.75;6.15;;;;;;;16.03;73.38;98243.53;5098998;27;20449;-70
2022/06/21 02:20:05;;;;;;;14.20;6.80;;;;;;;15.97;73.50;98244.25;5117319;27;20527;-68
2022/06/21 02:22:31;;;;;;;8.32;5.28;;;;;;;15.92;73.63;98246.63;5117272;27;20488;-70
2022/06/21 02:24:56;;;;;;;12.40;5.97;;;;;;;15.88;74.18;98245.31;5098494;27;20034;-69
2022/06/21 02:27:23;;;;;;;11.18;6.05;;;;;;;15.87;74.69;98251.69;5098673;27;20042;-70
2022/06/21 02:29:51;;;;;;;12.43;6.20;;;;;;;15.85;74.87;98251.88;5098519;27;20042;-70
2022/06/21 02:32:25;;;;;;;14.82;5.50;;;;;;;15.87;75.11;98259.78;5098488;27;20046;-70
2022/06/21 02:34:54;;;;;;;11.00;6.20;;;;;;;15.83;75.21;98250.38;5117032;27;20043;-69
2022/06/21 02:37:19;;;;;;;11.50;6.53;;;;;;;15.80;75.30;98256.13;5081189;27;20039;-70
2022/06/21 02:39:46;;;;;;;12.73;5.88;;;;;;;15.79;75.28;98260.66;5081456;27;20497;-69
2022/06/21 02:42:26;;;;;;;16.15;6.90;;;;;;;15.85;75.61;98261.78;5098087;27;20078;-71
2022/06/21 02:44:57;;;;;;;9.35;6.07;;;;;;;15.81;75.58;98263.13;5098357;27;20055;-70
2022/06/21 02:47:29;;;;;;;17.55;6.38;;;;;;;15.77;75.52;98267.22;5064218;27;20579;-72
2022/06/21 02:49:59;;;;;;;11.75;5.90;;;;;;;15.75;75.57;98261.19;5081490;27;20419;-73
2022/06/21 02:52:37;;;;;;;13.77;5.97;;;;;;;15.76;75.70;98263.69;5098358;27;20472;-72
2022/06/21 02:55:25;;;;;;;10.23;5.28;;;;;;;15.73;75.96;98260.50;5099164;27;20500;-69
2022/06/21 02:58:01;;;;;;;16.55;6.38;;;;;;;15.73;76.28;98255.13;5064851;27;20378;-70
2022/06/21 03:00:26;;;;;;;16.60;6.53;;;;;;;15.67;76.35;98267.44;5098163;27;20046;-70
2022/06/21 03:02:52;;;;;;;10.63;5.80;;;;;;;15.66;76.46;98257.69;5098090;27;20091;-70
2022/06/21 03:05:21;;;;;;;14.73;6.03;;;;;;;15.66;76.59;98252.31;5080869;27;20181;-67
2022/06/21 03:07:54;;;;;;;10.85;5.80;;;;;;;15.68;76.53;98263.75;5115366;27;20046;-69
2022/06/21 03:10:23;;;;;;;12.68;6.43;;;;;;;15.65;76.89;98256.03;5115447;27;20039;-70
2022/06/21 03:12:50;;;;;;;8.82;6.20;;;;;;;15.63;77.15;98252.66;5117333;27;20049;-71
2022/06/21 03:15:14;;;;;;;13.43;7.30;;;;;;;15.60;76.96;98255.69;5100229;27;20049;-70
2022/06/21 03:17:48;;;;;;;9.88;5.35;;;;;;;15.60;77.35;98248.47;5119780;27;20042;-70
2022/06/21 03:20:16;;;;;;;12.18;6.25;;;;;;;15.63;77.51;98252.66;5090767;27;20517;-70
2022/06/21 03:22:42;;;;;;;9.43;5.50;;;;;;;15.63;77.56;98249.16;5129332;27;20043;-70
2022/06/21 03:25:15;;;;;;;10.85;6.05;;;;;;;15.64;77.95;98240.91;5109935;27;20603;-70
2022/06/21 03:27:46;;;;;;;17.17;6.40;;;;;;;15.69;77.95;98241.19;5117164;27;20504;-70
2022/06/21 03:30:11;;;;;;;13.27;6.18;;;;;;;15.65;77.79;98236.38;5116244;27;20057;-68
2022/06/21 03:32:37;;;;;;;9.05;6.22;;;;;;;15.65;77.90;98229.16;5117422;27;20573;-68
2022/06/21 03:35:04;;;;;;;13.10;6.70;;;;;;;15.67;78.09;98234.34;5121436;27;20512;-68
2022/06/21 03:37:29;;;;;;;9.07;6.28;;;;;;;15.65;77.96;98223.78;5123421;27;20520;-72
2022/06/21 03:42:44;;;;;;;9.98;5.88;;;;;;;15.68;78.02;98214.53;5104155;27;20053;-72
2022/06/21 03:45:32;;;;;;;8.40;5.57;;;;;;;15.74;78.31;98222.72;5087712;27;20412;-74
2022/06/21 03:48:07;;;;;;;10.98;5.97;;;;;;;15.69;78.53;98224.28;5104587;27;20042;-71
2022/06/21 03:50:38;;;;;;;10.77;6.13;;;;;;;15.71;78.84;98223.06;5087558;27;20560;-70
2022/06/21 03:53:12;;;;;;;12.75;5.72;;;;;;;15.75;78.85;98223.56;5088048;27;20077;-71
2022/06/21 03:55:51;;;;;;;13.07;6.15;;;;;;;15.81;78.88;98220.16;5087561;27;20532;-72
2022/06/21 03:58:22;;;;;;;12.13;6.07;;;;;;;15.87;78.76;98216.75;5123727;27;20180;-70
2022/06/21 04:00:49;;;;;;;14.48;6.20;;;;;;;15.91;78.58;98210.03;5104462;27;20050;-71
2022/06/21 04:03:29;;;;;;;12.27;6.32;;;;;;;16.06;78.46;98213.59;5086975;27;20038;-70
2022/06/21 04:05:58;;;;;;;11.50;6.70;;;;;;;16.12;77.96;98210.22;5087445;27;20046;-70
2022/06/21 04:08:39;;;;;;;12.98;7.00;;;;;;;16.27;77.64;98204.88;5104052;27;20569;-69
2022/06/21 04:11:19;;;;;;;20.50;7.70;;;;;;;16.39;77.24;98205.28;5104062;27;20070;-69
2022/06/21 04:13:55;;;;;;;14.52;6.88;;;;;;;16.48;76.61;98196.13;5069800;27;20377;-71
2022/06/21 04:16:42;;;;;;;12.07;6.53;;;;;;;16.62;76.10;98195.34;5103783;27;20067;-71
2022/06/21 04:19:33;;;;;;;12.98;8.77;;;;;;;16.84;75.66;98197.13;5086393;27;20509;-71
2022/06/21 04:22:11;;;;;;;13.48;7.07;;;;;;;16.89;74.62;98199.28;5122581;27;20493;-71
2022/06/21 04:24:46;;;;;;;11.43;6.00;;;;;;;16.95;73.87;98191.28;5103343;27;20038;-72
2022/06/21 04:27:26;;;;;;;11.32;6.03;;;;;;;16.99;73.67;98184.53;5103910;27;20743;-71
2022/06/21 04:29:57;;;;;;;10.93;6.13;;;;;;;17.01;73.39;98184.34;5122014;27;20421;-71
2022/06/21 04:32:46;;;;;;;12.25;7.05;;;;;;;17.13;73.15;98182.84;5104035;27;20054;-70
2022/06/21 04:35:32;;;;;;;11.90;6.00;;;;;;;17.23;72.88;98183.41;5122375;27;20834;-69
2022/06/21 04:38:09;;;;;;;12.15;6.20;;;;;;;17.30;72.59;98172.69;5087107;27;20038;-73
2022/06/21 04:40:36;;;;;;;14.27;6.68;;;;;;;17.36;72.62;98163.88;5104144;27;20030;-71
2022/06/21 04:43:21;;;;;;;10.18;6.13;;;;;;;17.49;72.42;98166.75;5069720;27;20103;-72
2022/06/21 04:45:54;;;;;;;9.48;5.63;;;;;;;17.59;72.20;98156.50;5080648;27;20050;-71
2022/06/21 04:48:18;;;;;;;13.75;6.65;;;;;;;17.55;71.56;98154.34;5080696;27;20046;-72
2022/06/21 04:50:54;;;;;;;11.30;5.95;;;;;;;17.54;70.87;98150.81;5063135;27;20043;-72
2022/06/21 04:53:48;;;;;;;12.75;6.60;;;;;;;17.57;71.10;98150.44;5063182;27;20047;-71
2022/06/21 04:56:21;;;;;;;11.43;7.70;;;;;;;17.58;71.28;98151.28;5086799;27;20047;-73
2022/06/21 04:58:48;;;;;;;14.05;7.40;;;;;;;17.67;70.81;98164.47;5098265;27;20519;-73
2022/06/21 05:04:24;;;;;;;11.13;6.93;;;;;;;18.03;71.07;98174.41;5098116;27;20049;-73
2022/06/21 05:06:51;;;;;;;11.70;6.32;;;;;;;18.33;70.65;98170.53;5112060;27;20593;-71
2022/06/21 05:09:19;;;;;;;11.32;6.35;;;;;;;18.70;68.63;98172.09;5068980;27;20133;-70
2022/06/21 05:11:45;;;;;;;14.35;6.82;;;;;;;18.96;66.68;98163.31;5103195;27;20382;-69
2022/06/21 05:14:22;;;;;;;11.63;7.03;;;;;;;19.34;64.21;98165.59;5084304;27;20074;-70
2022/06/21 05:16:48;;;;;;;9.15;6.50;;;;;;;19.58;63.25;98157.00;5088470;27;20031;-72
2022/06/21 05:19:27;;;;;;;10.93;6.35;;;;;;;19.94;63.24;98148.56;5103845;27;20309;-70
2022/06/21 05:22:04;;;;;;;11.07;6.85;;;;;;;20.17;61.35;98157.13;5118991;27;20034;-71
2022/06/21 05:24:29;;;;;;;12.65;6.57;;;;;;;20.19;61.63;98156.94;5106496;27;20035;-75
2022/06/21 05:27:03;;;;;;;11.73;7.00;;;;;;;20.19;61.04;98156.94;5084533;27;20046;-71
2022/06/21 05:29:40;;;;;;;8.73;5.68;;;;;;;19.94;59.84;98165.63;5086534;27;20126;-77
2022/06/21 05:32:15;;;;;;;11.90;6.78;;;;;;;19.63;59.86;98169.91;5119549;27;20453;-70
2022/06/21 05:34:44;;;;;;;11.23;6.22;;;;;;;19.34;60.72;98179.09;5117919;27;20098;-71
2022/06/21 05:37:32;;;;;;;7.78;6.22;;;;;;;19.33;61.83;98169.31;5118323;27;20470;-71
2022/06/21 05:40:00;;;;;;;8.63;6.15;;;;;;;19.15;61.57;98173.41;5117762;27;20046;-70
2022/06/21 05:42:27;;;;;;;9.60;6.75;;;;;;;19.08;60.24;98169.81;5098553;27;20034;-71
2022/06/21 05:44:56;;;;;;;20.55;11.02;;;;;;;19.03;61.21;98161.50;5118145;27;20535;-70
2022/06/21 05:47:28;;;;;;;10.50;6.55;;;;;;;19.08;61.99;98163.59;5117950;27;20042;-71
2022/06/21 05:49:53;;;;;;;8.45;6.03;;;;;;;19.04;61.45;98156.94;5098881;27;20412;-70
2022/06/21 05:52:33;;;;;;;11.35;5.80;;;;;;;19.09;61.13;98162.56;5117627;27;20133;-71
2022/06/21 05:55:11;;;;;;;10.95;5.53;;;;;;;19.09;61.54;98157.16;5081842;27;20050;-71
2022/06/21 05:58:02;;;;;;;7.85;5.70;;;;;;;19.13;61.46;98148.47;5117064;27;20094;-71
2022/06/21 06:00:32;;;;;;;11.25;5.43;;;;;;;19.01;60.48;98154.63;5117529;27;20409;-72
2022/06/21 06:03:14;;;;;;;11.40;6.57;;;;;;;18.96;60.79;98146.31;5081418;27;20085;-72
2022/06/21 06:05:39;;;;;;;10.45;6.03;;;;;;;18.94;61.46;98140.25;5081703;27;20404;-73
2022/06/21 06:08:13;;;;;;;9.43;6.45;;;;;;;19.02;61.12;98150.91;5098518;27;20424;-71
2022/06/21 06:10:42;;;;;;;7.60;5.28;;;;;;;18.96;60.37;98146.31;5117350;27;20042;-71
2022/06/21 06:13:23;;;;;;;12.50;6.28;;;;;;;18.94;61.45;98154.59;5117095;27;20038;-72
2022/06/21 06:15:53;;;;;;;10.27;6.28;;;;;;;18.84;61.62;98159.53;5116145;27;20065;-67
2022/06/21 06:18:24;;;;;;;11.25;6.55;;;;;;;18.81;61.03;98163.44;5097986;27;20417;-68
2022/06/21 06:20:52;;;;;;;10.85;6.78;;;;;;;18.73;60.78;98149.28;5081193;27;20098;-68
2022/06/21 06:23:29;;;;;;;12.18;8.02;;;;;;;18.71;60.88;98157.56;5116711;27;20129;-67
2022/06/21 06:25:59;;;;;;;11.35;6.93;;;;;;;18.57;61.23;98149.53;5063950;27;20047;-68
2022/06/21 06:28:27;;;;;;;11.40;6.72;;;;;;;18.47;62.00;98157.97;5097820;27;20050;-68
2022/06/21 06:30:57;;;;;;;11.45;6.75;;;;;;;18.49;62.14;98164.84;5064467;27;20508;-69
2022/06/21 06:33:35;;;;;;;7.88;6.32;;;;;;;18.42;62.21;98168.50;5098372;27;20055;-68
2022/06/21 06:36:06;;;;;;;11.45;7.10;;;;;;;18.34;62.06;98174.88;5081232;27;20035;-71
2022/06/21 06:38:31;;;;;;;10.23;6.80;;;;;;;18.24;62.69;98171.69;5081526;27;20129;-68
2022/06/21 06:41:04;;;;;;;15.85;7.15;;;;;;;18.24;63.17;98174.38;5098146;27;20130;-68
2022/06/21 06:43:43;;;;;;;24.10;7.75;;;;;;;18.19;63.32;98166.03;5116540;27;20046;-67
2022/06/21 06:46:16;;;;;;;9.20;6.65;;;;;;;18.09;63.68;98173.63;5097716;27;20126;-68
2022/06/21 06:48:42;;;;;;;11.13;7.32;;;;;;;18.03;63.74;98169.84;5096991;27;20077;-67
2022/06/21 06:51:33;;;;;;;10.38;7.35;;;;;;;18.06;63.54;98169.44;5080732;27;20130;-68
2022/06/21 06:54:01;;;;;;;15.73;7.95;;;;;;;17.85;64.04;98174.81;5111347;27;20085;-67
2022/06/21 06:56:36;;;;;;;13.82;8.57;;;;;;;17.81;64.71;98178.13;5097867;27;20030;-67
2022/06/21 06:59:07;;;;;;;12.32;8.13;;;;;;;17.76;64.55;98182.19;5080354;27;20044;-68
2022/06/21 07:02:02;;;;;;;13.95;7.63;;;;;;;17.80;65.29;98168.34;5097376;27;20053;-68
2022/06/21 07:04:31;;;;;;;;;;;;;;;17.92;64.91;98175.75;5116759;27;20103;-67
2022/06/21 07:07:03;;;;;;;14.38;7.47;;;;;;;17.84;64.92;98164.22;5098172;27;20274;-67
2022/06/21 07:09:39;;;;;;;19.08;12.25;;;;;;;17.84;65.43;98159.66;5115537;27;20629;-67
2022/06/21 07:12:17;;;;;;;17.75;8.52;;;;;;;17.88;66.58;98157.44;5097748;27;20043;-67
2022/06/21 07:14:43;;;;;;;12.30;7.47;;;;;;;17.87;66.23;98158.47;5097493;27;20393;-67
2022/06/21 07:17:18;;;;;;;11.48;7.22;;;;;;;17.95;65.66;98159.16;5097942;27;20443;-68
2022/06/21 07:19:43;;;;;;;12.95;6.97;;;;;;;18.00;65.22;98164.81;5080363;27;20046;-68
2022/06/21 07:22:15;;;;;;;8.95;6.25;;;;;;;18.08;64.37;98153.06;5116468;27;20129;-68
2022/06/21 07:24:40;;;;;;;14.27;7.28;;;;;;;18.05;63.03;98150.78;5098263;27;20507;-68
2022/06/21 07:27:11;;;;;;;16.90;11.50;;;;;;;18.06;64.47;98147.84;5119750;27;20054;-67
2022/06/21 07:29:56;;;;;;;23.75;12.13;;;;;;;18.14;65.05;98146.91;5121210;27;20039;-68
2022/06/21 07:32:28;;;;;;;30.63;16.05;;;;;;;18.10;65.11;98145.63;5116545;27;20043;-68
2022/06/21 07:35:02;;;;;;;33.35;22.33;;;;;;;18.13;64.59;98147.94;5115664;27;20031;-67
2022/06/21 07:37:35;;;;;;;39.88;22.65;;;;;;;18.10;64.72;98148.31;5115713;27;20580;-66
2022/06/21 07:40:29;;;;;;;19.23;9.43;;;;;;;18.09;64.25;98150.19;5080077;27;20062;-67
2022/06/21 07:43:22;;;;;;;31.23;15.07;;;;;;;17.96;65.21;98138.44;5088004;27;20070;-67
2022/06/21 07:45:59;;;;;;;16.50;7.80;;;;;;;17.89;63.92;98129.44;5096982;27;20038;-67
2022/06/21 07:48:42;;;;;;;11.65;7.72;;;;;;;17.77;64.17;98138.06;5062202;27;20118;-68
2022/06/21 07:51:36;;;;;;;18.63;11.73;;;;;;;17.72;64.42;98136.94;5062762;27;20064;-67
2022/06/21 07:54:07;;;;;;;17.17;8.77;;;;;;;17.70;65.31;98139.84;5011234;28;20060;-69
2022/06/21 07:56:41;;;;;;;12.65;8.60;;;;;;;17.76;65.82;98133.69;5013915;28;20495;-66
2022/06/21 07:59:16;;;;;;;18.13;10.73;;;;;;;17.81;66.45;98145.75;4981680;28;20048;-67
2022/06/21 08:07:44;;;;;;;16.85;8.60;;;;;;;17.65;67.26;98147.66;5014895;28;20044;-66
2022/06/21 08:10:17;;;;;;;15.43;7.97;;;;;;;17.57;66.67;98136.16;5013623;28;20527;-68
2022/06/21 08:12:42;;;;;;;13.80;8.00;;;;;;;17.59;67.21;98139.50;5013435;28;20131;-69
2022/06/21 08:15:08;;;;;;;16.55;10.65;;;;;;;17.62;67.59;98139.91;5013209;28;20056;-71
2022/06/21 08:17:42;;;;;;;22.90;13.98;;;;;;;17.73;68.60;98136.75;5011866;28;20052;-70
2022/06/21 08:20:21;;;;;;;19.83;11.50;;;;;;;17.73;68.22;98136.75;5012785;28;20053;-70
2022/06/21 08:22:51;;;;;;;16.10;9.88;;;;;;;17.82;68.25;98144.75;5019502;28;20504;-71
2022/06/21 08:25:22;;;;;;;18.20;10.77;;;;;;;17.90;68.20;98147.31;5018662;28;20056;-70
2022/06/21 08:28:26;;;;;;;17.83;10.77;;;;;;;17.99;67.86;98149.66;5019003;28;20055;-71
2022/06/21 08:30:55;;;;;;;13.45;8.75;;;;;;;17.97;67.02;98145.50;5072290;27;20043;-70
2022/06/21 08:33:49;;;;;;;15.70;8.13;;;;;;;18.05;67.23;98140.81;5103552;27;20094;-70
2022/06/21 08:36:31;;;;;;;30.33;19.23;;;;;;;18.09;67.95;98143.94;5124145;27;20464;-70
2022/06/21 08:39:02;;;;;;;17.92;12.23;;;;;;;18.04;68.11;98141.84;5124517;27;20038;-71
2022/06/21 08:42:03;;;;;;;18.70;9.48;;;;;;;18.13;67.32;98139.84;5122282;27;20138;-71
2022/06/21 08:47:49;;;;;;;42.47;20.08;;;;;;;18.10;67.93;98135.66;5101821;27;20038;-71
2022/06/21 08:50:39;;;;;;;44.05;25.40;;;;;;;18.14;68.41;98136.97;5106091;27;20053;-71
2022/06/21 08:53:22;;;;;;;32.75;21.38;;;;;;;18.17;68.96;98133.03;5125232;27;20042;-72
2022/06/21 08:56:04;;;;;;;28.30;18.08;;;;;;;18.11;68.94;98117.63;5103874;27;20050;-70
2022/06/21 08:58:36;;;;;;;19.13;10.93;;;;;;;18.07;68.66;98130.66;5087079;27;20030;-71
2022/06/21 09:01:10;;;;;;;26.10;12.82;;;;;;;18.00;68.78;98134.31;5124042;27;20070;-70
2022/06/21 09:03:57;;;;;;;17.58;10.10;;;;;;;18.11;69.29;98131.94;5085373;27;20042;-71
2022/06/21 09:07:00;;;;;;;16.15;9.77;;;;;;;18.11;69.42;98133.81;5119293;27;20050;-71
2022/06/21 09:09:34;;;;;;;12.45;7.53;;;;;;;18.04;69.41;98138.31;5100432;27;20432;-72
2022/06/21 09:12:24;;;;;;;12.57;7.15;;;;;;;18.05;69.88;98140.81;5100450;27;20038;-71
2022/06/21 09:15:07;;;;;;;12.25;7.40;;;;;;;18.02;69.96;98143.06;5118649;27;20038;-71
2022/06/21 09:17:41;;;;;;;11.85;7.30;;;;;;;17.91;70.17;98143.59;5100491;27;20149;-72
2022/06/21 09:20:32;;;;;;;13.57;7.28;;;;;;;17.81;70.20;98133.13;5117127;27;20095;-71
2022/06/21 09:23:08;;;;;;;14.15;8.85;;;;;;;17.68;70.05;98132.97;5118945;27;20480;-71
2022/06/21 09:26:04;;;;;;;11.30;9.30;;;;;;;17.69;70.40;98146.28;5100371;27;20069;-67
2022/06/21 09:28:55;;;;;;;16.08;10.10;;;;;;;17.65;70.69;98144.13;5083313;27;20066;-68
2022/06/21 09:31:50;;;;;;;16.17;9.60;;;;;;;17.60;69.96;98146.56;5118770;27;20065;-67
2022/06/21 09:34:23;;;;;;;13.80;9.63;;;;;;;17.43;70.15;98145.94;5121344;27;20118;-67
2022/06/21 09:37:17;;;;;;;22.05;12.55;;;;;;;17.40;70.24;98139.06;5102251;27;20050;-67
2022/06/21 09:39:57;;;;;;;26.00;13.02;;;;;;;17.26;70.31;98133.72;5093027;27;20050;-67
2022/06/21 09:42:48;;;;;;;21.23;13.38;;;;;;;17.25;70.88;98127.50;5040214;28;20137;-67
2022/06/21 09:45:33;;;;;;;17.00;12.15;;;;;;;17.31;70.93;98123.19;5039096;28;20492;-67
2022/06/21 09:48:09;;;;;;;17.92;9.65;;;;;;;17.26;70.55;98126.47;5055393;28;20764;-68
2022/06/21 09:50:52;;;;;;;23.17;10.00;;;;;;;17.23;70.26;98134.94;5055813;28;20039;-68
2022/06/21 09:53:33;;;;;;;18.27;8.43;;;;;;;17.18;70.18;98133.81;5055533;28;20407;-68
2022/06/21 09:56:05;;;;;;;15.57;9.38;;;;;;;17.14;70.06;98129.84;5038597;28;20614;-69
2022/06/21 09:58:59;;;;;;;18.77;9.90;;;;;;;17.22;69.91;98127.03;5020954;28;20147;-70
2022/06/21 10:02:11;;;;;;;20.65;11.35;;;;;;;17.33;70.04;98126.53;5036964;28;20054;-71
2022/06/21 10:04:57;;;;;;;19.70;10.50;;;;;;;17.33;69.54;98129.22;5048796;28;20090;-73
2022/06/21 10:07:48;;;;;;;13.05;9.07;;;;;;;17.30;68.92;98132.31;5038349;28;20055;-70
2022/06/21 10:10:31;;;;;;;15.90;8.68;;;;;;;17.58;69.00;98133.25;5038481;28;20082;-71
2022/06/21 10:13:05;;;;;;;23.95;9.80;;;;;;;17.68;68.58;98133.81;5039850;27;20046;-70
2022/06/21 10:15:56;;;;;;;16.70;10.57;;;;;;;17.91;68.36;98135.50;5098987;27;20046;-70
2022/06/21 10:18:30;;;;;;;15.25;10.32;;;;;;;17.95;68.66;98140.28;5118171;27;20428;-68
2022/06/21 10:21:02;;;;;;;17.38;10.02;;;;;;;18.09;68.39;98141.25;5064675;27;20054;-70
2022/06/21 10:24:08;;;;;;;16.98;9.02;;;;;;;18.14;67.82;98128.03;5081744;27;20043;-69
2022/06/21 10:26:43;;;;;;;15.73;9.40;;;;;;;18.33;67.62;98131.91;5000845;28;20518;-70
2022/06/21 10:29:46;;;;;;;17.30;10.82;;;;;;;18.44;67.73;98124.13;5018098;28;20033;-71
2022/06/21 10:32:51;;;;;;;21.23;9.65;;;;;;;18.57;68.01;98139.56;5017665;28;20049;-70
2022/06/21 10:36:00;;;;;;;21.45;11.00;;;;;;;18.68;67.67;98136.34;5018526;28;20518;-71
2022/06/21 10:38:27;;;;;;;15.02;9.23;;;;;;;18.60;67.18;98130.28;5018262;28;20114;-69
2022/06/21 10:41:19;;;;;;;14.57;9.30;;;;;;;18.67;67.11;98134.69;5017528;28;20036;-66
2022/06/21 10:43:59;;;;;;;15.23;9.00;;;;;;;18.63;66.55;98132.56;4999839;28;20543;-66
2022/06/21 10:46:49;;;;;;;11.85;8.23;;;;;;;18.64;66.94;98129.69;5018922;28;20126;-65
2022/06/21 10:49:41;;;;;;;14.25;9.10;;;;;;;18.65;66.40;98122.41;5017428;28;20103;-67
2022/06/21 10:52:05;;;;;;;14.68;9.23;;;;;;;18.58;65.71;98113.44;5033811;28;20050;-67
2022/06/21 10:54:36;;;;;;;13.35;8.30;;;;;;;18.67;65.06;98107.69;5034865;28;20045;-68
2022/06/21 10:57:41;;;;;;;14.10;8.68;;;;;;;18.79;64.84;98099.88;5049818;27;20103;-68
2022/06/21 11:03:59;;;;;;;11.52;7.57;;;;;;;18.82;63.69;98094.09;5015007;28;20048;-67
2022/06/21 11:06:58;;;;;;;14.25;8.00;;;;;;;18.90;63.81;98090.38;4916858;29;20106;-67
2022/06/21 11:09:38;;;;;;;11.10;6.85;;;;;;;18.81;63.98;98092.41;4915984;29;20417;-69
2022/06/21 11:15:18;;;;;;;16.20;10.45;;;;;;;18.66;64.71;98095.22;4900753;29;20223;-68
2022/06/21 11:17:48;;;;;;;18.20;10.35;;;;;;;18.57;64.28;98104.47;4901733;29;20039;-69
2022/06/21 11:20:20;;;;;;;26.92;16.13;;;;;;;18.58;64.34;98095.41;4896410;29;20047;-69
2022/06/21 11:23:10;;;;;;;21.27;12.02;;;;;;;18.58;64.04;98103.50;4911128;29;20073;-66
2022/06/21 11:25:55;;;;;;;27.58;16.58;;;;;;;18.57;64.22;98103.66;4917948;29;20050;-74
2022/06/21 11:28:27;;;;;;;;;;;;;;;18.69;64.13;98100.25;4902854;29;20142;-74
2022/06/21 11:30:55;;;;;;;19.10;10.20;;;;;;;18.55;63.04;98095.75;4922001;29;19928;-74
2022/06/21 11:33:40;;;;;;;18.38;10.35;;;;;;;18.62;62.67;98103.94;4906449;29;20111;-72
2022/06/21 11:36:11;;;;;;;;;;;;;;;18.78;62.91;98109.84;4932937;28;20126;-71
2022/06/21 11:39:13;;;;;;;14.43;8.38;;;;;;;18.77;62.11;98112.72;5060978;28;19930;-70
2022/06/21 11:42:08;;;;;;;14.23;8.18;;;;;;;18.75;62.35;98117.50;5102141;28;20039;-76
2022/06/21 11:45:01;;;;;;;16.70;11.43;;;;;;;18.80;61.95;98115.88;5106631;28;20050;-74
2022/06/21 11:47:29;;;;;;;30.23;15.27;;;;;;;18.72;62.16;98109.81;5086632;28;20137;-75
2022/06/21 11:50:16;;;;;;;18.65;10.02;;;;;;;18.71;61.63;98108.16;5109305;28;20401;-77
2022/06/21 11:53:05;;;;;;;23.90;13.13;;;;;;;18.77;62.59;98115.44;5084224;28;20051;-73
2022/06/21 11:55:48;;;;;;;92.53;47.85;;;;;;;18.72;62.67;98099.84;5101033;27;20102;-74
2022/06/21 11:58:16;;;;;;;24.48;14.55;;;;;;;18.74;61.33;98103.16;5104426;27;20107;-72
2022/06/21 12:00:47;;;;;;;32.83;17.50;;;;;;;18.75;60.44;98094.03;5101670;27;20039;-73
2022/06/21 12:03:29;;;;;;;23.38;12.65;;;;;;;18.89;60.15;98094.94;5082454;27;20057;-71
2022/06/21 12:05:58;;;;;;;16.60;9.65;;;;;;;18.89;58.85;98089.53;5101265;27;20031;-71
2022/06/21 12:08:27;;;;;;;21.83;13.35;;;;;;;18.94;59.21;98089.78;5083453;27;20130;-73
2022/06/21 12:11:03;;;;;;;29.42;14.82;;;;;;;19.10;59.21;98081.31;5081140;27;20074;-72
2022/06/21 12:14:16;;;;;;;21.08;11.75;;;;;;;19.23;59.60;98080.53;5081080;27;20055;-71
2022/06/21 12:17:02;;;;;;;42.53;23.35;;;;;;;19.26;60.00;98076.59;5020391;28;20079;-71
2022/06/21 12:19:41;;;;;;;44.25;25.20;;;;;;;19.24;59.79;98074.09;5020232;28;20067;-71
2022/06/21 12:22:31;;;;;;;19.60;13.45;;;;;;;19.25;59.89;98072.25;5019968;28;20045;-73
2022/06/21 12:24:57;;;;;;;35.75;20.55;;;;;;;19.10;58.62;98062.41;5010949;28;20108;-73
2022/06/21 12:27:23;;;;;;;13.63;7.95;;;;;;;19.08;56.87;98067.19;5035471;28;20076;-74
2022/06/21 12:29:48;;;;;;;9.68;6.20;;;;;;;19.05;56.59;98064.06;5035342;28;20086;-70